LFKJ/AJA METAR and TAF weather

Enter ICAO airport designator
Station Type Date Time Source
LFKJ METAR 2020/07/02 22:00 UTC NOAA

LFKJ 022200Z AUTO 11002KT 9999 BKN011 23/21 Q1012 BECMG NSC


Station Type Date Time Source
LFKJ Decoded METAR 2020/07/02 22:00 UTC NOAA

Ajaccio, France (LFKJ) 41-55N 008-48E 9M
Jul 02, 2020 - 06:00 PM EDT / 2020.07.02 2200 UTC
Wind: from the ESE (110 degrees) at 2 MPH (2 KT):0
Visibility: greater than 7 mile(s):0
Sky conditions: mostly cloudy
Temperature: 73 F (23 C)
Dew Point: 69 F (21 C)
Relative Humidity: 88%
Pressure (altimeter): 29.88 in. Hg (1012 hPa)
ob: LFKJ 022200Z AUTO 11002KT 9999 BKN011 23/21 Q1012 BECMG NSC
cycle: 22

Station Type Date Time Source
LFKJ TAF 2020/07/02 21:45 UTC NOAA

TAF
AMD LFKJ 022138Z 0221/0321 04003KT CAVOK PROB40
TEMPO 0221/0301 BKN010
BECMG 0306/0308 24010KT
TEMPO 0312/0319 30010KT
BECMG 0319/0321 04006KT

Example: see airport list